Time;durP1;ratioP1;P1;durP2;ratioP2;P2;SDS_P1;SDS_P2;PMS_P1;PMS_P2;Temp;Humidity;BMP_temperature;BMP_pressure;BME280_temperature;BME280_humidity;BME280_pressure;Samples;Min_cycle;Max_cycle;Signal;HPM_P1;HPM_P2
2023/11/22 00:01:06;;;;;;;1999.90;999.90;;;;;;;7.52;91.83;95769.94;5117337;28;20079;-65
2023/11/22 00:03:33;;;;;;;1999.90;999.90;;;;;;;7.57;91.62;95765.41;5117406;28;20048;-66
2023/11/22 00:06:01;;;;;;;1999.90;999.90;;;;;;;7.53;91.20;95753.38;5117050;28;20052;-63
2023/11/22 00:08:29;;;;;;;1999.90;999.90;;;;;;;7.48;90.96;95747.53;5117460;28;20126;-63
2023/11/22 00:10:56;;;;;;;1999.90;999.90;;;;;;;7.49;92.02;95749.22;5117272;28;20051;-65
2023/11/22 00:13:23;;;;;;;1999.90;999.90;;;;;;;7.44;91.75;95749.38;5117176;28;20043;-62
2023/11/22 00:15:53;;;;;;;1999.90;999.90;;;;;;;7.47;91.41;95764.06;5117057;28;20048;-65
2023/11/22 00:18:20;;;;;;;1999.90;999.90;;;;;;;7.50;91.73;95776.09;5117256;28;20112;-63
2023/11/22 00:20:48;;;;;;;1999.90;999.90;;;;;;;7.49;92.03;95770.03;5116919;28;20413;-63
2023/11/22 00:23:16;;;;;;;1999.90;999.90;;;;;;;7.51;91.96;95772.59;5117037;28;20040;-64
2023/11/22 00:25:44;;;;;;;1999.90;999.90;;;;;;;7.53;92.68;95758.59;5116864;28;20058;-62
2023/11/22 00:28:11;;;;;;;1999.90;999.90;;;;;;;7.63;97.70;95760.84;5116922;28;20043;-65
2023/11/22 00:30:38;;;;;;;1999.90;999.90;;;;;;;7.60;96.47;95764.44;5116805;28;20071;-63
2023/11/22 00:33:07;;;;;;;1999.90;999.90;;;;;;;7.63;96.57;95771.25;5117119;28;20062;-65
2023/11/22 00:35:34;;;;;;;1999.90;999.90;;;;;;;7.65;96.35;95766.88;5116766;28;20044;-62
2023/11/22 00:38:01;;;;;;;1999.90;999.90;;;;;;;7.69;96.21;95771.91;5116738;28;20048;-63
2023/11/22 00:40:28;;;;;;;1999.90;999.90;;;;;;;7.71;95.40;95777.03;5116704;28;20043;-61
2023/11/22 00:42:55;;;;;;;1999.90;999.90;;;;;;;7.69;94.49;95768.44;5116547;28;20051;-63
2023/11/22 00:45:22;;;;;;;1999.90;999.90;;;;;;;7.67;93.60;95760.69;5116616;28;20044;-64
2023/11/22 00:47:50;;;;;;;1999.90;999.90;;;;;;;7.74;93.53;95765.66;5116518;28;20105;-62
2023/11/22 00:50:19;;;;;;;1999.90;999.90;;;;;;;7.65;92.65;95744.25;5116466;28;20048;-64
2023/11/22 00:52:47;;;;;;;1999.90;999.90;;;;;;;7.71;92.62;95762.25;5116319;28;20105;-62
2023/11/22 00:55:14;;;;;;;1999.90;999.90;;;;;;;7.66;92.34;95764.19;5116513;28;20495;-62
2023/11/22 00:57:41;;;;;;;1999.90;999.90;;;;;;;7.69;91.71;95769.28;5116453;28;20151;-65
2023/11/22 01:00:11;;;;;;;1999.90;999.90;;;;;;;7.66;90.69;95760.75;5116491;28;20048;-62
2023/11/22 01:02:39;;;;;;;1999.90;999.90;;;;;;;7.57;90.56;95749.78;5116371;28;20051;-63
2023/11/22 01:05:10;;;;;;;1999.90;999.90;;;;;;;7.53;91.10;95747.34;5116053;28;20497;-65
2023/11/22 01:07:40;;;;;;;1999.90;999.90;;;;;;;7.55;92.85;95748.13;5116149;28;20051;-64
2023/11/22 01:10:08;;;;;;;1999.90;999.90;;;;;;;7.49;94.98;95753.59;5115157;28;20044;-65
2023/11/22 01:12:35;;;;;;;1999.90;999.90;;;;;;;7.50;95.76;95745.72;5115771;28;20051;-63
2023/11/22 01:15:02;;;;;;;1999.90;999.90;;;;;;;7.54;94.91;95736.03;5115890;28;20493;-63
2023/11/22 01:17:29;;;;;;;1999.90;999.90;;;;;;;7.53;94.03;95729.97;5115825;28;20071;-64
2023/11/22 01:19:56;;;;;;;1999.90;999.90;;;;;;;7.49;92.42;95724.97;5115787;28;20079;-63
2023/11/22 01:22:23;;;;;;;1999.90;999.90;;;;;;;7.46;92.32;95731.13;5115878;28;20082;-64
2023/11/22 01:24:51;;;;;;;1999.90;999.90;;;;;;;7.45;92.56;95732.88;5115602;28;20394;-65
2023/11/22 01:27:18;;;;;;;1999.90;999.90;;;;;;;7.40;92.71;95713.13;5115898;28;20093;-62
2023/11/22 01:29:45;;;;;;;1999.90;999.90;;;;;;;7.39;93.32;95716.66;5115668;28;20052;-62
2023/11/22 01:32:12;;;;;;;1999.90;999.90;;;;;;;7.45;93.89;95742.44;5115762;28;20512;-63
2023/11/22 01:34:39;;;;;;;1999.90;999.90;;;;;;;7.45;93.08;95735.50;5115648;28;20058;-64
2023/11/22 01:37:07;;;;;;;1999.90;999.90;;;;;;;7.44;91.95;95743.34;5115457;28;20052;-65
2023/11/22 01:39:33;;;;;;;1999.90;999.90;;;;;;;7.31;91.25;95740.34;5115437;28;20050;-64
2023/11/22 01:42:02;;;;;;;1999.90;999.90;;;;;;;7.35;92.05;95744.56;5115477;28;20062;-62
2023/11/22 01:44:29;;;;;;;1999.90;999.90;;;;;;;7.31;91.79;95742.94;5115338;28;20047;-63
2023/11/22 01:46:56;;;;;;;1999.90;999.90;;;;;;;7.24;92.88;95738.88;5115177;28;20044;-61
2023/11/22 01:49:24;;;;;;;1999.90;999.90;;;;;;;7.19;94.22;95733.84;5115231;28;20044;-64
2023/11/22 01:51:51;;;;;;;1999.90;999.90;;;;;;;7.14;93.78;95722.78;5115285;28;20047;-63
2023/11/22 01:54:21;;;;;;;1999.90;999.90;;;;;;;7.16;95.84;95726.16;5115289;28;20040;-64
2023/11/22 01:56:50;;;;;;;1999.90;999.90;;;;;;;7.14;95.63;95717.59;5115185;28;20459;-62
2023/11/22 01:59:19;;;;;;;1999.90;999.90;;;;;;;7.16;95.84;95720.97;5115070;28;20091;-61
2023/11/22 02:01:46;;;;;;;1999.90;999.90;;;;;;;7.23;95.30;95725.06;5115097;28;20063;-65
2023/11/22 02:04:13;;;;;;;1999.90;999.90;;;;;;;7.23;94.01;95729.41;5115070;28;20086;-62
2023/11/22 02:06:41;;;;;;;1999.90;999.90;;;;;;;7.23;93.39;95735.47;5114889;28;20058;-64
2023/11/22 02:09:13;;;;;;;1999.90;999.90;;;;;;;7.18;92.50;95730.44;5114954;28;20520;-65
2023/11/22 02:11:42;;;;;;;1999.90;999.90;;;;;;;7.11;92.11;95726.38;5114871;28;20047;-65
2023/11/22 02:14:09;;;;;;;1999.90;999.90;;;;;;;7.03;91.42;95716.25;5114889;27;20058;-64
2023/11/22 02:16:38;;;;;;;1999.90;999.90;;;;;;;7.00;90.68;95718.09;5114721;28;20052;-63
2023/11/22 02:19:07;;;;;;;1999.90;999.90;;;;;;;7.00;90.30;95724.16;5114684;28;20050;-64
2023/11/22 02:21:34;;;;;;;1999.90;999.90;;;;;;;7.02;90.29;95724.09;5114369;28;20073;-61
2023/11/22 02:24:03;;;;;;;1999.90;999.90;;;;;;;7.03;89.73;95728.38;5114514;28;20093;-63
2023/11/22 02:26:31;;;;;;;1999.90;999.90;;;;;;;6.91;88.96;95727.09;5114627;28;20051;-65
2023/11/22 02:28:58;;;;;;;1999.90;999.90;;;;;;;6.80;89.53;95727.47;5114476;28;20412;-64
2023/11/22 02:31:27;;;;;;;1999.90;999.90;;;;;;;6.78;90.75;95726.69;5114490;28;20484;-64
2023/11/22 02:33:55;;;;;;;1999.90;999.90;;;;;;;6.77;90.49;95715.44;5114528;28;20040;-64
2023/11/22 02:36:22;;;;;;;1999.90;999.90;;;;;;;6.72;90.53;95735.56;5114433;28;20485;-62
2023/11/22 02:38:50;;;;;;;1999.90;999.90;;;;;;;6.73;90.51;95728.59;5114359;28;20055;-63
2023/11/22 02:41:18;;;;;;;1999.90;999.90;;;;;;;6.74;90.77;95744.13;5114418;28;20074;-62
2023/11/22 02:43:46;;;;;;;1999.90;999.90;;;;;;;6.56;91.20;95730.88;5114539;28;20059;-62
2023/11/22 02:46:13;;;;;;;1999.90;999.90;;;;;;;6.47;92.70;95719.97;5114196;28;20058;-65
2023/11/22 02:48:40;;;;;;;1999.90;999.90;;;;;;;6.57;92.06;95706.59;5114302;28;20100;-62
2023/11/22 02:51:07;;;;;;;1999.90;999.90;;;;;;;6.57;92.59;95705.75;5114150;28;20138;-65
2023/11/22 02:53:34;;;;;;;1999.90;999.90;;;;;;;6.53;92.79;95704.19;5113978;28;20048;-64
2023/11/22 02:56:02;;;;;;;1999.90;999.90;;;;;;;6.46;92.67;95700.94;5114227;27;20117;-63
2023/11/22 02:58:31;;;;;;;1999.90;999.90;;;;;;;6.41;94.95;95697.66;5113902;28;20493;-62
2023/11/22 03:00:58;;;;;;;1999.90;999.90;;;;;;;6.43;95.34;95698.44;5114000;28;20044;-63
2023/11/22 03:03:25;;;;;;;1999.90;999.90;;;;;;;6.49;95.52;95698.22;5113949;28;20079;-64
2023/11/22 03:05:52;;;;;;;1999.90;999.90;;;;;;;6.58;98.42;95699.66;5113791;28;20051;-64
2023/11/22 03:08:19;;;;;;;1999.90;999.90;;;;;;;6.65;100.00;95710.69;5114077;28;20043;-61
2023/11/22 03:10:47;;;;;;;1999.90;999.90;;;;;;;6.70;99.61;95695.75;5113780;28;20048;-64
2023/11/22 03:13:14;;;;;;;1999.90;999.90;;;;;;;6.74;98.87;95684.34;5113789;28;20130;-65
2023/11/22 03:15:43;;;;;;;1999.90;999.90;;;;;;;6.81;98.37;95692.78;5113736;28;20065;-62
2023/11/22 03:18:11;;;;;;;1999.90;999.90;;;;;;;6.84;97.31;95682.28;5113703;28;20443;-64
2023/11/22 03:20:38;;;;;;;1999.90;999.90;;;;;;;6.76;96.97;95686.88;5113628;28;20043;-62
2023/11/22 03:23:05;;;;;;;1999.90;999.90;;;;;;;6.83;96.41;95697.00;5113677;28;20048;-61
2023/11/22 03:25:32;;;;;;;1999.90;999.90;;;;;;;6.86;95.97;95682.22;5113456;28;20480;-62
2023/11/22 03:27:59;;;;;;;1999.90;999.90;;;;;;;6.83;95.65;95676.22;5113705;28;20405;-65
2023/11/22 03:30:26;;;;;;;1999.90;999.90;;;;;;;6.85;95.36;95680.50;5113485;28;20053;-63
2023/11/22 03:32:55;;;;;;;1999.90;999.90;;;;;;;6.88;95.36;95683.00;5113605;28;20481;-62
2023/11/22 03:35:22;;;;;;;1999.90;999.90;;;;;;;6.93;94.74;95692.31;5113243;28;20043;-62
2023/11/22 03:37:49;;;;;;;1999.90;999.90;;;;;;;6.93;93.93;95704.47;5113452;28;20138;-64
2023/11/22 03:40:16;;;;;;;1999.90;999.90;;;;;;;6.92;94.31;95700.16;5113427;28;20048;-65
2023/11/22 03:42:43;;;;;;;1999.90;999.90;;;;;;;6.95;96.01;95703.50;5113476;28;20126;-64
2023/11/22 03:45:12;;;;;;;1999.90;999.90;;;;;;;6.99;96.34;95706.88;5113378;28;20096;-63
2023/11/22 03:47:39;;;;;;;1999.90;999.90;;;;;;;7.05;96.13;95695.38;5113462;28;20052;-65
2023/11/22 03:50:09;;;;;;;1999.90;999.90;;;;;;;7.08;95.52;95692.66;5113249;28;20491;-65
2023/11/22 03:52:37;;;;;;;1999.90;999.90;;;;;;;7.08;94.43;95696.09;5113361;28;20051;-65
2023/11/22 03:55:05;;;;;;;1999.90;999.90;;;;;;;7.11;94.15;95702.97;5113345;28;20043;-62
2023/11/22 03:57:32;;;;;;;1999.90;999.90;;;;;;;7.15;93.10;95708.88;5113291;28;20053;-64
2023/11/22 03:59:59;;;;;;;1999.90;999.90;;;;;;;7.12;93.10;95712.44;5113511;28;20082;-65
2023/11/22 04:02:27;;;;;;;1999.90;999.90;;;;;;;7.12;92.53;95720.25;5113312;28;20589;-64
2023/11/22 04:04:54;;;;;;;1999.90;999.90;;;;;;;7.08;92.52;95735.09;5113371;28;20472;-62
2023/11/22 04:07:23;;;;;;;1999.90;999.90;;;;;;;7.08;92.40;95755.09;5113012;28;20051;-65
2023/11/22 04:09:50;;;;;;;1999.90;999.90;;;;;;;7.06;92.00;95770.75;5113155;28;20054;-64
2023/11/22 04:12:17;;;;;;;1999.90;999.90;;;;;;;6.96;92.01;95748.56;5113259;28;20047;-63
2023/11/22 04:14:44;;;;;;;1999.90;999.90;;;;;;;6.82;94.21;95736.91;5113188;28;20073;-63
2023/11/22 04:17:12;;;;;;;1999.90;999.90;;;;;;;6.76;95.61;95737.13;5113248;28;20123;-63
2023/11/22 04:19:39;;;;;;;1999.90;999.90;;;;;;;6.83;98.69;95725.59;5113146;28;20050;-64
2023/11/22 04:22:06;;;;;;;1999.90;999.90;;;;;;;6.90;100.00;95717.59;5113165;28;20043;-63
2023/11/22 04:24:34;;;;;;;1999.90;999.90;;;;;;;6.91;100.00;95707.13;5113234;28;20066;-65
2023/11/22 04:27:02;;;;;;;1999.90;999.90;;;;;;;6.96;100.00;95717.38;5113037;28;20059;-61
2023/11/22 04:29:29;;;;;;;1999.90;999.90;;;;;;;7.08;100.00;95742.06;5113187;28;20050;-65
2023/11/22 04:31:56;;;;;;;1999.90;999.90;;;;;;;7.11;100.00;95744.56;5113037;28;20044;-63
2023/11/22 04:34:24;;;;;;;1999.90;999.90;;;;;;;7.14;100.00;95744.47;5112904;28;20135;-62
2023/11/22 04:36:51;;;;;;;1999.90;999.90;;;;;;;7.20;100.00;95741.59;5112959;28;20040;-63
2023/11/22 04:39:18;;;;;;;1999.90;999.90;;;;;;;7.28;100.00;95762.13;5112979;28;20051;-62
2023/11/22 04:41:47;;;;;;;1999.90;999.90;;;;;;;7.35;100.00;95770.56;5113004;28;20043;-62
2023/11/22 04:44:14;;;;;;;1999.90;999.90;;;;;;;7.33;100.00;95768.03;5112964;28;20051;-63
2023/11/22 04:46:41;;;;;;;1999.90;999.90;;;;;;;7.35;99.79;95793.13;5116326;28;20043;-61
2023/11/22 04:49:08;;;;;;;1999.90;999.90;;;;;;;7.39;99.39;95789.50;5116588;27;20048;-62
2023/11/22 04:51:35;;;;;;;1999.90;999.90;;;;;;;7.44;98.72;95798.84;5116580;28;20048;-64
2023/11/22 04:54:02;;;;;;;1999.90;999.90;;;;;;;7.50;98.31;95796.91;5116497;27;20050;-63
2023/11/22 04:56:29;;;;;;;1999.90;999.90;;;;;;;7.48;97.72;95798.72;5116413;28;20058;-63
2023/11/22 04:58:58;;;;;;;1999.90;999.90;;;;;;;7.49;97.81;95792.63;5116290;28;20047;-65
2023/11/22 05:01:26;;;;;;;1999.90;999.90;;;;;;;7.50;97.34;95791.72;5116386;28;20055;-65
2023/11/22 05:03:53;;;;;;;1999.90;999.90;;;;;;;7.55;96.87;95784.56;5116186;28;20100;-61
2023/11/22 05:06:20;;;;;;;1999.90;999.90;;;;;;;7.57;96.71;95782.75;5115942;28;20048;-64
2023/11/22 05:08:47;;;;;;;1999.90;999.90;;;;;;;7.62;96.31;95791.25;5116135;28;20089;-61
2023/11/22 05:11:15;;;;;;;1999.90;999.90;;;;;;;7.63;95.80;95792.94;5116087;28;20132;-64
2023/11/22 05:13:43;;;;;;;1999.90;999.90;;;;;;;7.62;97.31;95803.41;5116045;28;20048;-61
2023/11/22 05:16:12;;;;;;;1999.90;999.90;;;;;;;7.64;97.60;95809.41;5116062;28;20049;-62
2023/11/22 05:18:39;;;;;;;1999.90;999.90;;;;;;;7.66;97.41;95807.59;5116048;28;20047;-64
2023/11/22 05:21:07;;;;;;;1999.90;999.90;;;;;;;7.64;96.75;95791.16;5115824;28;20476;-65
2023/11/22 05:23:37;;;;;;;1999.90;999.90;;;;;;;7.66;96.54;95786.78;5115909;28;20040;-63
2023/11/22 05:26:04;;;;;;;1999.90;999.90;;;;;;;7.64;96.86;95783.38;5115833;28;20052;-64
2023/11/22 05:28:32;;;;;;;1999.90;999.90;;;;;;;7.68;97.71;95796.22;5115777;28;20056;-62
2023/11/22 05:30:59;;;;;;;1999.90;999.90;;;;;;;7.76;97.55;95808.94;5115761;27;20104;-64
2023/11/22 05:33:27;;;;;;;1999.90;999.90;;;;;;;7.77;96.87;95815.00;5115638;28;20040;-63
2023/11/22 05:35:55;;;;;;;1999.90;999.90;;;;;;;7.78;97.01;95819.28;5115695;28;20096;-63
2023/11/22 05:38:22;;;;;;;1999.90;999.90;;;;;;;7.83;96.35;95825.19;5115531;28;20054;-64
2023/11/22 05:40:49;;;;;;;1999.90;999.90;;;;;;;7.83;95.99;95823.41;5115644;28;20104;-64
2023/11/22 05:43:17;;;;;;;1999.90;999.90;;;;;;;7.68;95.72;95804.00;5115490;28;20100;-62
2023/11/22 05:45:49;;;;;;;1999.90;999.90;;;;;;;7.68;96.53;95797.97;5115500;28;20055;-64
2023/11/22 05:48:16;;;;;;;1999.90;999.90;;;;;;;7.68;97.05;95805.78;5115424;28;20050;-63
2023/11/22 05:50:45;;;;;;;1999.90;999.90;;;;;;;7.76;97.14;95805.47;5115450;27;20142;-62
2023/11/22 05:53:12;;;;;;;1999.90;999.90;;;;;;;7.78;96.86;95807.13;5115228;28;20044;-62
2023/11/22 05:55:39;;;;;;;1999.90;999.90;;;;;;;7.76;96.75;95803.72;5115334;28;20538;-65
2023/11/22 05:58:07;;;;;;;1999.90;999.90;;;;;;;7.85;96.79;95810.34;5114557;27;20084;-62
2023/11/22 06:00:34;;;;;;;1999.90;999.90;;;;;;;7.92;96.33;95814.38;5115267;28;20073;-64
2023/11/22 06:03:01;;;;;;;1999.90;999.90;;;;;;;7.95;96.45;95821.25;5115064;28;20040;-65
2023/11/22 06:05:28;;;;;;;1999.90;999.90;;;;;;;8.00;96.31;95828.91;5115224;28;20131;-65
2023/11/22 06:07:56;;;;;;;1999.90;999.90;;;;;;;8.05;96.23;95837.38;5114819;28;20135;-64
2023/11/22 06:10:24;;;;;;;1999.90;999.90;;;;;;;8.06;96.35;95842.50;5114856;28;20039;-65
2023/11/22 06:12:51;;;;;;;1999.90;999.90;;;;;;;8.10;96.25;95848.47;5114818;28;20052;-62
2023/11/22 06:15:20;;;;;;;1999.90;999.90;;;;;;;8.15;96.11;95854.31;5114971;28;20043;-61
2023/11/22 06:17:48;;;;;;;1999.90;999.90;;;;;;;8.15;96.16;95861.28;5114797;28;20043;-66
2023/11/22 06:20:16;;;;;;;1999.90;999.90;;;;;;;8.21;96.57;95867.13;5114787;28;20127;-64
2023/11/22 06:22:44;;;;;;;1999.90;999.90;;;;;;;8.27;96.68;95875.59;5114560;28;20044;-65
2023/11/22 06:25:13;;;;;;;1999.90;999.90;;;;;;;8.33;96.94;95881.41;5114688;28;20127;-64
2023/11/22 06:27:41;;;;;;;1999.90;999.90;;;;;;;8.37;97.19;95871.69;5114505;28;20059;-63
2023/11/22 06:30:09;;;;;;;1999.90;999.90;;;;;;;8.49;97.14;95880.78;5114449;28;20082;-62
2023/11/22 06:32:36;;;;;;;1999.90;999.90;;;;;;;8.54;97.33;95891.06;5114518;28;20489;-62
2023/11/22 06:35:04;;;;;;;1999.90;999.90;;;;;;;8.50;98.04;95884.25;5114323;28;20051;-62
2023/11/22 06:37:31;;;;;;;1999.90;999.90;;;;;;;8.54;100.00;95891.06;5114448;28;20051;-65
2023/11/22 06:39:58;;;;;;;1999.90;999.90;;;;;;;8.65;100.00;95891.50;5114444;28;20074;-62
2023/11/22 06:42:27;;;;;;;1999.90;999.90;;;;;;;8.75;100.00;95899.78;5114427;28;20048;-62
2023/11/22 06:44:58;;;;;;;1999.90;999.90;;;;;;;8.88;100.00;95905.34;5114256;28;20043;-64
2023/11/22 06:47:25;;;;;;;1999.90;999.90;;;;;;;8.97;100.00;95901.50;5114242;28;20048;-62
2023/11/22 06:49:52;;;;;;;1999.90;999.90;;;;;;;9.08;100.00;95898.44;5114202;28;20459;-61
2023/11/22 06:52:19;;;;;;;1999.90;999.90;;;;;;;9.14;100.00;95895.56;5114161;28;20500;-64
2023/11/22 06:54:46;;;;;;;1999.90;999.90;;;;;;;9.19;100.00;95890.16;5114204;28;20043;-64
2023/11/22 06:57:13;;;;;;;1999.90;999.90;;;;;;;9.27;100.00;95882.84;5114272;28;20179;-63
2023/11/22 06:59:42;;;;;;;1999.90;999.90;;;;;;;9.36;100.00;95884.19;5114074;28;20054;-63
2023/11/22 07:02:09;;;;;;;1999.90;999.90;;;;;;;9.45;100.00;95891.63;5114076;28;20113;-65
2023/11/22 07:04:37;;;;;;;1999.90;999.90;;;;;;;9.58;100.00;95897.16;5113831;28;20048;-62
2023/11/22 07:07:05;;;;;;;1999.90;999.90;;;;;;;9.64;100.00;95900.44;5113913;28;20059;-65
2023/11/22 07:09:32;;;;;;;1999.90;999.90;;;;;;;9.59;100.00;95913.69;5113818;28;20039;-62
2023/11/22 07:11:59;;;;;;;1999.90;999.90;;;;;;;9.60;99.58;95920.59;5113836;28;20043;-65
2023/11/22 07:14:28;;;;;;;1999.90;999.90;;;;;;;9.53;97.68;95927.00;5113830;28;20039;-64
2023/11/22 07:16:57;;;;;;;1999.90;999.90;;;;;;;9.50;96.70;95922.78;5113864;28;20071;-63
2023/11/22 07:19:24;;;;;;;1999.90;999.90;;;;;;;9.54;96.21;95923.50;5113816;28;20534;-63
2023/11/22 07:21:51;;;;;;;1999.90;999.90;;;;;;;9.58;95.90;95923.28;5113721;28;20046;-64
2023/11/22 07:24:18;;;;;;;1999.90;999.90;;;;;;;9.67;96.17;95929.88;5113678;28;20051;-65
2023/11/22 07:26:46;;;;;;;1999.90;999.90;;;;;;;9.70;96.26;95927.09;5113578;28;20047;-64
2023/11/22 07:29:14;;;;;;;1999.90;999.90;;;;;;;9.77;96.10;95937.28;5113609;28;20089;-65
2023/11/22 07:31:42;;;;;;;1999.90;999.90;;;;;;;9.85;96.08;95941.25;5113587;28;20429;-63
2023/11/22 07:34:11;;;;;;;1999.90;999.90;;;;;;;9.95;96.31;95941.69;5113715;28;20043;-64
2023/11/22 07:36:40;;;;;;;1999.90;999.90;;;;;;;10.06;96.24;95933.34;5113579;28;20052;-62
2023/11/22 07:39:07;;;;;;;1999.90;999.90;;;;;;;10.14;95.65;95927.78;5113594;28;20048;-64
2023/11/22 07:41:34;;;;;;;1999.90;999.90;;;;;;;10.23;95.83;95934.34;5113509;28;20043;-63
2023/11/22 07:44:01;;;;;;;1999.90;999.90;;;;;;;10.31;95.83;95944.44;5113412;28;20089;-62
2023/11/22 07:46:28;;;;;;;1999.90;999.90;;;;;;;10.34;95.95;95954.75;5113419;28;20104;-63
2023/11/22 07:48:55;;;;;;;1999.90;999.90;;;;;;;10.36;96.15;95952.94;5113244;28;20050;-64
2023/11/22 07:51:25;;;;;;;1999.90;999.90;;;;;;;10.36;95.82;95960.78;5113582;28;20039;-65
2023/11/22 07:53:52;;;;;;;1999.90;999.90;;;;;;;10.39;94.92;95965.00;5113362;28;20485;-62
2023/11/22 07:56:19;;;;;;;1999.90;999.90;;;;;;;10.39;95.00;95957.16;5113442;28;20040;-65
2023/11/22 07:58:46;;;;;;;1999.90;999.90;;;;;;;10.40;95.04;95956.25;5113452;28;20047;-64
2023/11/22 08:01:13;;;;;;;1999.90;999.90;;;;;;;10.39;95.36;95950.19;5113493;28;20394;-65
2023/11/22 08:03:45;;;;;;;1999.90;999.90;;;;;;;10.42;95.53;95964.88;5113217;28;20097;-62
2023/11/22 08:06:12;;;;;;;1999.90;999.90;;;;;;;10.46;95.67;95963.84;5113138;28;20052;-61
2023/11/22 08:08:41;;;;;;;1999.90;999.90;;;;;;;10.48;95.33;95954.16;5113174;28;20047;-62
2023/11/22 08:11:14;;;;;;;1999.90;999.90;;;;;;;10.46;95.90;95961.22;5113130;28;20054;-63
2023/11/22 08:13:42;;;;;;;1999.90;999.90;;;;;;;10.45;96.06;95962.13;5113191;28;20075;-62
2023/11/22 08:16:10;;;;;;;1999.90;999.90;;;;;;;10.50;96.03;95949.69;5113101;28;20044;-63
2023/11/22 08:18:37;;;;;;;1999.90;999.90;;;;;;;10.48;96.59;95944.53;5113269;28;20056;-64
2023/11/22 08:21:04;;;;;;;1999.90;999.90;;;;;;;10.58;97.74;95941.50;5115707;28;20047;-61
2023/11/22 08:23:32;;;;;;;1999.90;999.90;;;;;;;10.65;98.95;95942.88;5116932;28;20508;-65
2023/11/22 08:26:01;;;;;;;1999.90;999.90;;;;;;;10.74;99.58;95944.22;5116995;28;20489;-63
2023/11/22 08:28:29;;;;;;;1999.90;999.90;;;;;;;10.85;99.81;95941.94;5116812;28;20501;-64
2023/11/22 08:30:56;;;;;;;1999.90;999.90;;;;;;;10.97;99.86;95937.88;5117177;28;20040;-64
2023/11/22 08:33:23;;;;;;;1999.90;999.90;;;;;;;11.08;99.42;95936.50;5117003;28;20101;-66
2023/11/22 08:35:58;;;;;;;1999.90;999.90;;;;;;;11.13;98.67;95942.34;5116796;28;20050;-64
2023/11/22 08:38:25;;;;;;;1999.90;999.90;;;;;;;11.20;98.29;95954.19;5116851;28;20054;-65
2023/11/22 08:40:52;;;;;;;1999.90;999.90;;;;;;;11.27;98.12;95952.13;5116765;28;20059;-63
2023/11/22 08:43:23;;;;;;;1999.90;999.90;;;;;;;11.33;98.05;95954.44;5116726;28;20047;-62
2023/11/22 08:45:49;;;;;;;;;;;;;;;11.38;97.30;95954.22;5117020;28;20043;-63
2023/11/22 08:48:16;;;;;;;1999.90;999.90;;;;;;;11.34;96.73;95966.59;5116569;28;19927;-65
2023/11/22 08:50:44;;;;;;;1999.90;999.90;;;;;;;11.31;96.48;95965.91;5116424;28;20048;-62
2023/11/22 08:53:12;;;;;;;1999.90;999.90;;;;;;;11.28;96.58;95971.28;5116406;28;20046;-65
2023/11/22 08:55:40;;;;;;;1999.90;999.90;;;;;;;11.27;96.37;95973.06;5116311;28;20056;-66
2023/11/22 08:58:08;;;;;;;1999.90;999.90;;;;;;;11.31;96.03;95984.22;5116390;28;20047;-61
2023/11/22 09:00:36;;;;;;;1999.90;999.90;;;;;;;11.32;95.71;95984.16;5116255;28;20440;-65
2023/11/22 09:03:04;;;;;;;1999.90;999.90;;;;;;;11.34;95.51;95976.22;5116311;28;20559;-64
2023/11/22 09:05:31;;;;;;;1999.90;999.90;;;;;;;11.37;94.66;95978.69;5116056;28;20557;-64
2023/11/22 09:07:58;;;;;;;1999.90;999.90;;;;;;;11.38;94.47;95976.00;5116025;28;20461;-63
2023/11/22 09:10:26;;;;;;;1999.90;999.90;;;;;;;11.43;94.79;95973.16;5116216;28;20135;-64
2023/11/22 09:12:54;;;;;;;1999.90;999.90;;;;;;;11.49;94.98;95977.22;5116121;28;20134;-65
2023/11/22 09:15:26;;;;;;;1999.90;999.90;;;;;;;11.52;94.74;95969.22;5116126;28;20456;-62
2023/11/22 09:17:54;;;;;;;1999.90;999.90;;;;;;;11.55;94.83;95969.06;5115954;28;20044;-66
2023/11/22 09:20:21;;;;;;;1999.90;999.90;;;;;;;11.57;94.94;95964.59;5115929;28;20168;-63
2023/11/22 09:22:50;;;;;;;1999.90;999.90;;;;;;;11.60;95.64;95972.31;5115921;28;20475;-62
2023/11/22 09:25:19;;;;;;;1999.90;999.90;;;;;;;11.59;96.16;95965.34;5115888;28;20568;-65
2023/11/22 09:27:48;;;;;;;1999.90;999.90;;;;;;;11.63;96.32;95973.91;5115795;27;20083;-62
2023/11/22 09:30:31;;;;;;;1999.90;999.90;;;;;;;11.66;96.47;95981.59;5115875;27;20055;-64
2023/11/22 09:33:00;;;;;;;1999.90;999.90;;;;;;;11.71;96.92;95976.13;5114603;28;20048;-63
2023/11/22 09:35:29;;;;;;;1999.90;999.90;;;;;;;11.73;96.69;95966.41;5115778;28;20050;-66
2023/11/22 09:37:56;;;;;;;1999.90;999.90;;;;;;;11.76;96.73;95953.16;5115691;28;20078;-65
2023/11/22 09:40:24;;;;;;;1999.90;999.90;;;;;;;11.81;96.55;95953.78;5115623;28;20066;-64
2023/11/22 09:42:52;;;;;;;1999.90;999.90;;;;;;;11.87;96.22;95960.47;5115548;28;20125;-65
2023/11/22 09:45:21;;;;;;;1999.90;999.90;;;;;;;11.93;96.10;95956.66;5115456;28;20080;-63
2023/11/22 09:47:48;;;;;;;1999.90;999.90;;;;;;;11.97;95.82;95953.81;5115328;28;20048;-61
2023/11/22 09:50:21;;;;;;;1999.90;999.90;;;;;;;11.99;95.64;95964.19;5115484;28;20079;-61
2023/11/22 09:52:53;;;;;;;1999.90;999.90;;;;;;;11.88;95.75;95949.91;5115367;28;20130;-64
2023/11/22 09:55:22;;;;;;;1999.90;999.90;;;;;;;11.99;95.31;95964.19;5115287;28;20097;-63
2023/11/22 09:57:52;;;;;;;1999.90;999.90;;;;;;;11.97;95.13;95974.78;5115207;28;20184;-64
2023/11/22 10:00:21;;;;;;;1999.90;999.90;;;;;;;11.97;94.98;95973.91;5115127;28;20054;-63
2023/11/22 10:02:48;;;;;;;1999.90;999.90;;;;;;;11.99;94.72;95962.44;5115126;27;20079;-65
2023/11/22 10:05:16;;;;;;;1999.90;999.90;;;;;;;11.97;94.73;95964.28;5115156;28;20047;-64
2023/11/22 10:07:47;;;;;;;1999.90;999.90;;;;;;;11.97;94.79;95961.66;5114671;28;20092;-64
2023/11/22 10:10:18;;;;;;;1999.90;999.90;;;;;;;12.01;94.75;95957.09;5114981;28;20063;-63
2023/11/22 10:12:46;;;;;;;1999.90;999.90;;;;;;;11.98;94.55;95954.66;5114954;28;20130;-63
2023/11/22 10:15:15;;;;;;;1999.90;999.90;;;;;;;12.00;94.40;95948.41;5114985;28;20048;-62
2023/11/22 10:17:55;;;;;;;1999.90;999.90;;;;;;;12.02;94.81;95950.94;5114965;28;20044;-63
2023/11/22 10:20:23;;;;;;;1999.90;999.90;;;;;;;12.00;95.73;95945.78;5114900;28;20408;-66
2023/11/22 10:22:52;;;;;;;1999.90;999.90;;;;;;;11.96;95.57;95952.13;5114840;28;20040;-64
2023/11/22 10:25:19;;;;;;;1999.90;999.90;;;;;;;11.99;95.68;95953.72;5114751;28;20054;-63
2023/11/22 10:27:47;;;;;;;1999.90;999.90;;;;;;;12.04;95.42;95953.47;5114492;28;20485;-65
2023/11/22 10:30:16;;;;;;;1999.90;999.90;;;;;;;11.90;93.27;95947.19;5114740;28;20104;-64
2023/11/22 10:32:43;;;;;;;1999.90;999.90;;;;;;;11.92;93.93;95952.34;5114571;28;20050;-64
2023/11/22 10:35:10;;;;;;;1999.90;999.90;;;;;;;11.95;94.15;95950.41;5114508;28;20055;-63
2023/11/22 10:37:37;;;;;;;1999.90;999.90;;;;;;;11.98;95.54;95950.25;5114532;28;20077;-63
2023/11/22 10:40:10;;;;;;;1999.90;999.90;;;;;;;12.04;95.22;95951.69;5114378;28;20048;-65
2023/11/22 10:42:41;;;;;;;1999.90;999.90;;;;;;;12.01;94.77;95947.47;5114123;28;20055;-62
2023/11/22 10:45:10;;;;;;;1999.90;999.90;;;;;;;12.08;95.45;95955.88;5114449;28;20062;-63
2023/11/22 10:47:41;;;;;;;1999.90;999.90;;;;;;;12.10;94.37;95951.41;5114219;28;20047;-64
2023/11/22 10:50:10;;;;;;;1999.90;999.90;;;;;;;12.08;94.83;95948.03;5114217;28;20047;-64
2023/11/22 10:52:38;;;;;;;1999.90;999.90;;;;;;;12.00;94.29;95942.31;5114262;28;20108;-65
2023/11/22 10:55:07;;;;;;;1999.90;999.90;;;;;;;11.88;95.41;95947.28;5114063;28;20142;-61
2023/11/22 10:57:49;;;;;;;1999.90;999.90;;;;;;;11.90;95.16;95948.97;5114033;28;20092;-64
2023/11/22 11:00:22;;;;;;;1999.90;999.90;;;;;;;11.92;95.42;95950.56;5114126;28;20047;-62
2023/11/22 11:02:56;;;;;;;1999.90;999.90;;;;;;;11.97;94.29;95951.19;5113990;28;20724;-63